Airfield :
LOGIN :

Register | Disclaimer

   EN    FR    IT 

 










Legend :    VFR   Marginal VFR   IFR   Intensive IFR   Very Intensive IFR
Visi :
Ceiling :
>= 8 km
>= 3000ft
5 to 8 km
1000 to 3000 ft
1500m to 5 km
500 to 1000 ft
800 to 1500m
200 to 500 ft
< 800m
< 200 ft
Symbols :   Thunderstorms  Fog  Heavy snow  Heavy precipitations  Wind > 20 kt
SIGMETs :     Misc.  Thunderstorms  Icing  Turbulence  Mountain Waves  Volcanic Ashes







- Airport Elevation : 348 ft
- IATA code : LDV
- Download approach charts


LFRJ - Landivisiau

CURRENT METAR :
  • 271330Z AUTO 32009KT 280V350 9999 FEW003 SCT026 BKN032 16/09 Q1016 NOSIG

EXPIRED METARs :
  • 271300Z AUTO 33010KT 9999 SCT026 SCT034 BKN043 16/10 Q1016 NOSIG
  • 271230Z AUTO 33011KT 300V360 9999 SCT024 SCT031 BKN038 15/10 Q1016 NOSIG
  • 271200Z AUTO 31010KT 280V340 9999 BKN026 BKN038 15/10 Q1016 NOSIG
  • 271130Z AUTO 31010KT 280V340 9999 BKN024 BKN032 BKN038 16/10 Q1016 NOSIG
  • 271100Z AUTO 33012KT 290V350 9999 BKN023 BKN032 BKN038 15/10 Q1017 TEMPO 31015G25KT

TAF TAF LFRJ
Valid from the 27 at 12:00 until the 27 at 21:00 UTC


271100Z 2712/2721 32012KT 9999 BKN025
TEMPO 2714/2718 32013G23KT
No reported NOTAMs for that airfield.



MET'MAP, your aeronautical weather chart ! - Copyright ORBIFLY December 2007 - Disclaimer

ORBIFLY MET'MAP TEAM :

Programming & Development : Alexandra Zaïnal
Concept & Development : Baudouin d'Aumeries
Co-Development & Prog : Marc-Olivier Méhu
Technical & hardware support : Manuel Goepfert

Contact : metmap@orbifly.com




SOURCES & CREDITS :

   NOAA